Time;durP1;ratioP1;P1;durP2;ratioP2;P2;SDS_P1;SDS_P2;PMS_P1;PMS_P2;Temp;Humidity;BMP_temperature;BMP_pressure;BME280_temperature;BME280_humidity;BME280_pressure;Samples;Min_cycle;Max_cycle;Signal;HPM_P1;HPM_P2
2023/05/23 00:00:25;;;;;;;14.32;10.32;;;16.60;99.90;;;;;;5078447;28;20443;-58
2023/05/23 00:02:51;;;;;;;12.27;11.10;;;16.60;99.90;;;;;;5077280;28;20032;-58
2023/05/23 00:05:17;;;;;;;12.50;11.60;;;16.60;99.90;;;;;;5076691;28;20109;-59
2023/05/23 00:07:46;;;;;;;11.43;10.55;;;16.60;99.90;;;;;;5077059;28;20113;-59
2023/05/23 00:10:13;;;;;;;12.20;10.98;;;16.60;99.90;;;;;;5077253;28;20128;-59
2023/05/23 00:12:41;;;;;;;13.48;11.32;;;16.60;99.90;;;;;;5079539;28;20501;-60
2023/05/23 00:15:08;;;;;;;11.68;10.77;;;16.60;99.90;;;;;;5077027;28;20025;-58
2023/05/23 00:17:36;;;;;;;11.60;10.70;;;16.60;99.90;;;;;;5077298;28;20028;-59
2023/05/23 00:20:02;;;;;;;12.40;11.43;;;16.60;99.90;;;;;;5075997;28;20115;-58
2023/05/23 00:22:28;;;;;;;12.25;11.13;;;16.60;99.90;;;;;;5076140;28;20031;-59
2023/05/23 00:24:56;;;;;;;14.75;12.10;;;16.60;99.90;;;;;;5076897;28;20016;-59
2023/05/23 00:27:22;;;;;;;12.57;11.23;;;16.60;99.90;;;;;;5074591;28;20202;-59
2023/05/23 00:29:48;;;;;;;11.48;10.57;;;16.60;99.90;;;;;;5074592;28;20461;-59
2023/05/23 00:32:13;;;;;;;26.20;12.02;;;16.60;99.90;;;;;;5079348;28;20456;-59
2023/05/23 00:34:39;;;;;;;12.82;11.05;;;16.60;99.90;;;;;;5076725;28;20375;-59
2023/05/23 00:37:05;;;;;;;13.25;11.88;;;16.60;99.90;;;;;;5076807;28;20020;-59
2023/05/23 00:39:31;;;;;;;12.27;11.18;;;16.50;99.90;;;;;;5072774;28;20204;-58
2023/05/23 00:41:56;;;;;;;12.82;11.68;;;16.50;99.90;;;;;;5079482;28;20535;-59
2023/05/23 00:44:22;;;;;;;14.77;11.75;;;16.50;99.90;;;;;;5074064;28;20551;-60
2023/05/23 00:46:55;;;;;;;12.20;11.30;;;16.50;99.90;;;;;;5077119;28;20020;-59
2023/05/23 00:49:21;;;;;;;12.32;11.43;;;16.50;99.90;;;;;;5076694;28;20028;-58
2023/05/23 00:51:48;;;;;;;13.02;12.02;;;16.50;99.90;;;;;;5076982;28;20028;-59
2023/05/23 00:54:15;;;;;;;12.93;11.73;;;16.50;99.90;;;;;;5076257;28;20021;-60
2023/05/23 00:56:42;;;;;;;12.20;11.30;;;16.50;99.90;;;;;;5075719;28;20588;-59
2023/05/23 00:59:08;;;;;;;12.77;11.68;;;16.40;99.90;;;;;;5080435;28;20033;-59
2023/05/23 01:01:35;;;;;;;12.63;11.40;;;16.40;99.90;;;;;;5073472;28;20024;-58
2023/05/23 01:04:03;;;;;;;12.98;11.98;;;16.40;99.90;;;;;;5072922;28;20032;-57
2023/05/23 01:06:29;;;;;;;13.35;11.23;;;16.40;99.90;;;;;;5076939;28;20039;-59
2023/05/23 01:08:55;;;;;;;12.38;11.38;;;16.40;99.90;;;;;;5074090;28;20078;-59
2023/05/23 01:11:33;;;;;;;12.38;11.10;;;16.40;99.90;;;;;;5076325;28;20028;-59
2023/05/23 01:14:13;;;;;;;11.82;10.93;;;16.40;99.90;;;;;;5076382;28;20119;-59
2023/05/23 01:16:47;;;;;;;11.93;10.82;;;16.30;99.90;;;;;;5073835;28;20036;-58
2023/05/23 01:19:31;;;;;;;12.93;11.80;;;16.30;99.90;;;;;;5076965;28;20028;-59
2023/05/23 01:22:03;;;;;;;12.65;11.75;;;16.30;99.90;;;;;;5074310;28;20182;-58
2023/05/23 01:24:35;;;;;;;12.50;11.20;;;16.30;99.90;;;;;;5074179;28;20090;-59
2023/05/23 01:27:16;;;;;;;12.50;11.35;;;16.20;99.90;;;;;;5075938;28;20029;-57
2023/05/23 01:29:45;;;;;;;13.05;11.95;;;16.20;99.90;;;;;;5073844;28;20028;-59
2023/05/23 01:32:13;;;;;;;11.45;10.65;;;16.10;99.90;;;;;;5078274;28;20040;-58
2023/05/23 01:34:40;;;;;;;12.77;11.68;;;16.10;99.90;;;;;;5075046;28;20028;-59
2023/05/23 01:37:09;;;;;;;12.02;11.13;;;16.10;99.90;;;;;;5077635;28;20040;-60
2023/05/23 01:39:36;;;;;;;11.70;10.68;;;16.10;99.90;;;;;;5077501;28;20028;-59
2023/05/23 01:42:03;;;;;;;11.88;10.77;;;16.10;99.90;;;;;;5075152;28;20032;-58
2023/05/23 01:44:29;;;;;;;11.60;10.25;;;16.10;99.90;;;;;;5075529;28;20060;-60
2023/05/23 01:46:56;;;;;;;13.25;12.25;;;16.10;99.90;;;;;;5073291;28;20491;-59
2023/05/23 01:49:22;;;;;;;13.30;12.10;;;16.10;99.90;;;;;;5060171;28;20024;-59
2023/05/23 01:51:49;;;;;;;12.02;11.00;;;16.10;99.90;;;;;;5077336;28;20029;-58
2023/05/23 01:54:15;;;;;;;13.05;12.05;;;16.10;99.90;;;;;;5075666;28;20067;-59
2023/05/23 01:56:42;;;;;;;12.45;11.55;;;16.10;99.90;;;;;;5078858;28;20541;-59
2023/05/23 01:59:08;;;;;;;13.73;12.43;;;16.10;99.90;;;;;;5075953;28;20542;-59
2023/05/23 02:01:34;;;;;;;13.43;12.23;;;16.10;99.90;;;;;;5079471;28;20085;-58
2023/05/23 02:03:59;;;;;;;13.18;11.45;;;16.20;99.90;;;;;;5079443;28;20491;-58
2023/05/23 02:06:26;;;;;;;13.13;12.10;;;16.20;99.90;;;;;;5075678;28;20062;-58
2023/05/23 02:08:51;;;;;;;13.73;12.02;;;16.20;99.90;;;;;;5061042;28;20040;-59
2023/05/23 02:11:17;;;;;;;13.18;12.07;;;16.20;99.90;;;;;;5075915;28;20024;-59
2023/05/23 02:13:42;;;;;;;12.82;11.77;;;16.10;99.90;;;;;;5073488;28;20086;-60
2023/05/23 02:16:08;;;;;;;13.88;12.52;;;16.10;99.90;;;;;;5078993;28;20016;-59
2023/05/23 02:18:36;;;;;;;12.60;11.70;;;16.10;99.90;;;;;;5076774;28;20442;-57
2023/05/23 02:21:03;;;;;;;12.77;11.75;;;16.00;99.90;;;;;;5074737;28;20025;-58
2023/05/23 02:23:29;;;;;;;15.57;12.50;;;16.00;99.90;;;;;;5077875;28;20455;-60
2023/05/23 02:25:55;;;;;;;13.80;12.82;;;16.00;99.90;;;;;;5071285;28;20019;-59
2023/05/23 02:28:21;;;;;;;13.30;12.38;;;16.00;99.90;;;;;;5074314;28;20021;-59
2023/05/23 02:30:46;;;;;;;13.10;11.98;;;16.00;99.90;;;;;;5078473;28;20560;-59
2023/05/23 02:33:12;;;;;;;13.40;12.30;;;15.90;99.90;;;;;;5076707;28;20033;-60
2023/05/23 02:35:38;;;;;;;14.18;12.43;;;15.90;99.90;;;;;;5078205;28;20396;-60
2023/05/23 02:38:04;;;;;;;14.15;12.75;;;15.90;99.90;;;;;;5082583;28;20519;-59
2023/05/23 02:40:30;;;;;;;13.05;12.05;;;15.90;99.90;;;;;;5080424;28;20028;-59
2023/05/23 02:42:56;;;;;;;16.17;12.40;;;15.80;99.90;;;;;;5080773;28;20508;-58
2023/05/23 02:45:22;;;;;;;13.82;12.32;;;15.80;99.90;;;;;;5078845;28;20039;-58
2023/05/23 02:47:48;;;;;;;12.73;11.63;;;15.80;99.90;;;;;;5081160;28;20032;-58
2023/05/23 02:50:13;;;;;;;12.50;11.40;;;15.70;99.90;;;;;;5080797;28;20139;-59
2023/05/23 02:52:41;;;;;;;14.32;11.68;;;15.70;99.90;;;;;;5082116;28;20062;-58
2023/05/23 02:55:07;;;;;;;13.45;12.45;;;15.60;99.90;;;;;;5080327;28;20097;-59
2023/05/23 02:57:33;;;;;;;12.70;11.48;;;15.50;99.90;;;;;;5079507;28;20056;-58
2023/05/23 02:59:58;;;;;;;14.57;13.15;;;15.50;99.90;;;;;;5073029;28;20075;-58
2023/05/23 03:02:24;;;;;;;13.43;12.30;;;15.50;99.90;;;;;;5079099;28;20375;-58
2023/05/23 03:04:50;;;;;;;13.82;12.73;;;15.40;99.90;;;;;;5077919;28;20016;-59
2023/05/23 03:07:16;;;;;;;14.52;13.05;;;15.40;99.90;;;;;;5082004;28;20361;-59
2023/05/23 03:09:41;;;;;;;14.55;13.35;;;15.40;99.90;;;;;;5076248;28;20059;-58
2023/05/23 03:12:07;;;;;;;17.08;12.52;;;15.30;99.90;;;;;;5076106;28;20085;-58
2023/05/23 03:14:33;;;;;;;14.43;13.32;;;15.30;99.90;;;;;;5078469;28;20266;-58
2023/05/23 03:16:59;;;;;;;14.75;13.35;;;15.20;99.90;;;;;;5079841;28;20048;-58
2023/05/23 03:19:25;;;;;;;16.05;14.55;;;15.20;99.90;;;;;;5078497;28;20027;-59
2023/05/23 03:21:51;;;;;;;15.40;13.77;;;15.20;99.90;;;;;;5075988;28;20028;-59
2023/05/23 03:24:17;;;;;;;17.25;14.05;;;15.20;99.90;;;;;;5078101;28;20031;-58
2023/05/23 03:26:42;;;;;;;15.57;14.27;;;15.20;99.90;;;;;;5077184;28;20044;-59
2023/05/23 03:29:09;;;;;;;14.40;13.18;;;15.30;99.90;;;;;;5083112;28;20039;-59
2023/05/23 03:31:36;;;;;;;15.05;13.57;;;15.30;99.90;;;;;;5079981;28;20028;-58
2023/05/23 03:34:04;;;;;;;25.83;13.88;;;15.30;99.90;;;;;;5077847;28;20040;-58
2023/05/23 03:36:32;;;;;;;15.13;13.75;;;15.40;99.90;;;;;;5076919;28;20128;-58
2023/05/23 03:38:57;;;;;;;15.75;14.50;;;15.40;99.90;;;;;;5081295;28;20039;-59
2023/05/23 03:41:23;;;;;;;14.68;13.57;;;15.40;99.90;;;;;;5079566;28;20024;-59
2023/05/23 03:43:48;;;;;;;15.48;14.30;;;15.50;99.90;;;;;;5077208;28;20416;-59
2023/05/23 03:46:14;;;;;;;14.48;13.30;;;15.50;99.90;;;;;;5075310;28;20039;-57
2023/05/23 03:48:40;;;;;;;15.50;14.13;;;15.60;99.90;;;;;;5075170;28;20032;-58
2023/05/23 03:51:06;;;;;;;15.15;13.73;;;15.60;99.90;;;;;;5078473;28;20172;-58
2023/05/23 03:53:31;;;;;;;14.68;13.25;;;15.60;99.90;;;;;;5077303;28;20111;-58
2023/05/23 03:55:57;;;;;;;14.18;13.07;;;15.60;99.90;;;;;;5077391;28;20027;-58
2023/05/23 03:58:23;;;;;;;15.80;14.35;;;15.70;99.90;;;;;;5078260;28;20016;-59
2023/05/23 04:00:48;;;;;;;14.90;13.70;;;15.70;99.90;;;;;;5076611;28;20401;-58
2023/05/23 04:03:16;;;;;;;15.02;13.82;;;15.70;99.90;;;;;;5077251;28;20025;-59
2023/05/23 04:05:42;;;;;;;17.52;14.10;;;15.80;99.90;;;;;;5074759;28;20032;-60
2023/05/23 04:08:08;;;;;;;14.82;13.63;;;15.80;99.90;;;;;;5077191;28;20051;-60
2023/05/23 04:10:34;;;;;;;14.07;12.98;;;15.90;99.90;;;;;;5077102;28;20111;-60
2023/05/23 04:13:00;;;;;;;14.18;13.18;;;15.90;99.90;;;;;;5080249;28;20161;-58
2023/05/23 04:15:26;;;;;;;13.57;12.27;;;16.00;99.90;;;;;;5076033;28;20032;-58
2023/05/23 04:17:52;;;;;;;14.18;12.70;;;16.00;99.90;;;;;;5076745;28;20058;-59
2023/05/23 04:20:18;;;;;;;13.95;12.70;;;16.00;99.90;;;;;;5076782;28;20024;-59
2023/05/23 04:22:44;;;;;;;13.27;12.20;;;16.00;99.90;;;;;;5078016;28;20046;-60
2023/05/23 04:25:10;;;;;;;13.63;12.20;;;16.10;99.90;;;;;;5081047;28;20024;-60
2023/05/23 04:27:38;;;;;;;16.67;12.60;;;16.10;99.90;;;;;;5076739;28;20040;-58
2023/05/23 04:30:06;;;;;;;13.13;11.95;;;16.10;99.90;;;;;;5077259;28;20036;-59
2023/05/23 04:32:32;;;;;;;14.27;12.98;;;16.20;99.90;;;;;;5077636;28;20050;-59
2023/05/23 04:35:01;;;;;;;14.25;13.15;;;16.20;99.90;;;;;;5079826;28;20029;-59
2023/05/23 04:37:27;;;;;;;14.02;12.95;;;16.20;99.90;;;;;;5076193;28;20051;-59
2023/05/23 04:39:53;;;;;;;14.18;13.07;;;16.20;99.90;;;;;;5070441;28;20032;-59
2023/05/23 04:42:23;;;;;;;15.02;13.55;;;16.20;99.90;;;;;;5073966;28;20028;-59
2023/05/23 04:44:50;;;;;;;13.40;12.18;;;16.30;99.90;;;;;;5078557;28;20232;-59
2023/05/23 04:47:15;;;;;;;13.43;12.10;;;16.30;99.90;;;;;;5071814;28;20036;-59
2023/05/23 04:49:41;;;;;;;12.88;11.95;;;16.40;99.90;;;;;;5079748;28;20527;-59
2023/05/23 04:52:07;;;;;;;13.10;11.80;;;16.40;99.90;;;;;;5075862;28;20019;-59
2023/05/23 04:54:33;;;;;;;12.52;11.43;;;16.50;99.90;;;;;;5076529;28;20044;-58
2023/05/23 04:56:58;;;;;;;12.30;11.10;;;16.60;99.90;;;;;;5074590;28;20797;-60
2023/05/23 04:59:24;;;;;;;13.45;12.20;;;16.60;99.90;;;;;;5078365;28;20476;-59
2023/05/23 05:01:50;;;;;;;12.23;10.90;;;16.70;99.90;;;;;;5076278;28;20028;-59
2023/05/23 05:04:15;;;;;;;14.05;11.00;;;16.70;99.90;;;;;;5077409;28;20036;-60
2023/05/23 05:06:41;;;;;;;11.95;11.05;;;16.80;99.90;;;;;;5074207;28;20032;-59
2023/05/23 05:09:07;;;;;;;13.38;11.20;;;16.80;99.90;;;;;;5073980;28;20492;-59
2023/05/23 05:11:32;;;;;;;11.95;10.95;;;16.90;99.90;;;;;;5075163;28;20040;-59
2023/05/23 05:13:58;;;;;;;13.32;12.15;;;16.90;99.90;;;;;;5078155;28;20775;-58
2023/05/23 05:16:23;;;;;;;12.05;11.18;;;16.90;99.90;;;;;;5078496;28;20103;-58
2023/05/23 05:18:50;;;;;;;11.73;10.63;;;17.00;99.90;;;;;;5077346;28;20423;-59
2023/05/23 05:21:15;;;;;;;13.45;10.35;;;17.00;99.90;;;;;;5076000;28;20105;-59
2023/05/23 05:23:42;;;;;;;12.00;11.00;;;17.00;99.90;;;;;;5077774;28;20496;-59
2023/05/23 05:26:08;;;;;;;12.38;11.27;;;17.10;99.90;;;;;;5072864;28;20039;-59
2023/05/23 05:28:34;;;;;;;12.13;11.23;;;17.10;99.90;;;;;;5079976;28;20403;-59
2023/05/23 05:31:03;;;;;;;12.30;11.30;;;17.00;99.90;;;;;;5071326;28;20052;-59
2023/05/23 05:33:34;;;;;;;11.77;10.88;;;17.10;99.90;;;;;;5059923;28;20051;-58
2023/05/23 05:36:05;;;;;;;12.30;11.30;;;17.10;99.90;;;;;;5076537;28;20054;-58
2023/05/23 05:38:31;;;;;;;11.50;10.40;;;17.10;99.90;;;;;;5073109;28;20036;-59
2023/05/23 05:40:56;;;;;;;11.98;10.90;;;17.10;99.90;;;;;;5067618;28;20689;-58
2023/05/23 05:43:22;;;;;;;12.48;11.55;;;17.10;99.90;;;;;;5075551;28;20058;-59
2023/05/23 05:45:48;;;;;;;12.55;11.23;;;17.10;99.90;;;;;;5075126;28;20029;-59
2023/05/23 05:48:13;;;;;;;12.25;11.00;;;17.10;99.90;;;;;;5075642;28;20036;-60
2023/05/23 05:50:39;;;;;;;10.93;9.93;;;17.20;99.90;;;;;;5073596;28;20120;-59
2023/05/23 05:53:06;;;;;;;13.10;11.88;;;17.30;99.90;;;;;;5073759;28;20039;-59
2023/05/23 05:55:32;;;;;;;11.43;10.38;;;17.50;99.90;;;;;;5073972;28;20392;-59
2023/05/23 05:57:58;;;;;;;11.85;10.63;;;17.60;99.90;;;;;;5077751;28;20027;-59
2023/05/23 06:00:24;;;;;;;11.52;10.48;;;17.70;99.90;;;;;;5076874;28;20060;-60
2023/05/23 06:02:56;;;;;;;12.48;10.93;;;17.70;99.90;;;;;;5076975;28;20036;-60
2023/05/23 06:05:22;;;;;;;11.35;10.45;;;17.80;99.90;;;;;;5078384;28;20029;-60
2023/05/23 06:07:48;;;;;;;11.13;10.27;;;17.90;99.90;;;;;;5077432;28;20077;-59
2023/05/23 06:10:15;;;;;;;10.35;9.45;;;17.90;99.90;;;;;;5078869;28;20027;-60
2023/05/23 06:12:40;;;;;;;10.93;10.00;;;18.00;99.90;;;;;;5078979;28;20036;-59
2023/05/23 06:15:08;;;;;;;10.43;9.63;;;18.30;99.90;;;;;;5078619;28;20062;-57
2023/05/23 06:17:34;;;;;;;10.23;9.43;;;18.40;99.90;;;;;;5075606;28;20028;-58
2023/05/23 06:20:00;;;;;;;13.35;10.10;;;18.40;99.90;;;;;;5077580;28;20035;-58
2023/05/23 06:22:25;;;;;;;10.05;9.02;;;18.50;99.90;;;;;;5078625;28;20384;-59
2023/05/23 06:24:51;;;;;;;9.52;8.82;;;18.60;99.90;;;;;;5079886;28;20032;-60
2023/05/23 06:27:17;;;;;;;11.13;9.60;;;18.70;99.90;;;;;;5078722;28;20032;-59
2023/05/23 06:29:42;;;;;;;15.60;10.45;;;18.70;99.90;;;;;;5078506;28;20105;-61
2023/05/23 06:32:08;;;;;;;10.95;10.05;;;18.80;99.90;;;;;;5074433;28;20060;-61
2023/05/23 06:34:33;;;;;;;11.93;11.00;;;18.80;99.90;;;;;;5081662;28;20025;-59
2023/05/23 06:36:59;;;;;;;11.15;10.18;;;18.80;99.90;;;;;;5077772;28;20032;-59
2023/05/23 06:39:25;;;;;;;11.57;10.45;;;18.80;99.90;;;;;;5079837;28;20040;-58
2023/05/23 06:41:50;;;;;;;12.60;11.27;;;18.80;99.90;;;;;;5076755;28;20025;-58
2023/05/23 06:44:16;;;;;;;12.90;11.60;;;18.90;99.90;;;;;;5080286;28;20086;-59
2023/05/23 06:46:44;;;;;;;12.68;11.65;;;18.80;99.90;;;;;;5081169;28;20020;-59
2023/05/23 06:49:09;;;;;;;13.02;12.02;;;18.80;99.90;;;;;;5079781;28;20619;-58
2023/05/23 06:51:35;;;;;;;12.98;11.77;;;18.80;99.90;;;;;;5077944;28;20024;-58
2023/05/23 06:54:01;;;;;;;12.35;11.32;;;18.80;99.90;;;;;;5078529;28;20527;-56
2023/05/23 06:56:26;;;;;;;14.02;12.68;;;18.80;99.90;;;;;;5076942;28;20032;-59
2023/05/23 06:58:52;;;;;;;13.50;12.30;;;18.80;99.90;;;;;;5077225;28;20036;-58
2023/05/23 07:01:18;;;;;;;14.07;12.63;;;18.80;99.90;;;;;;5075778;28;20023;-57
2023/05/23 07:03:44;;;;;;;13.85;12.75;;;18.70;99.90;;;;;;5078571;28;20115;-59
2023/05/23 07:06:11;;;;;;;15.90;14.25;;;18.60;99.90;;;;;;5078089;28;20139;-59
2023/05/23 07:08:37;;;;;;;14.27;12.88;;;18.50;99.90;;;;;;5078232;28;20588;-59
2023/05/23 07:11:03;;;;;;;13.45;12.35;;;18.40;99.90;;;;;;5076766;28;20056;-59
2023/05/23 07:13:29;;;;;;;14.02;12.60;;;18.40;99.90;;;;;;5076724;28;20032;-59
2023/05/23 07:15:55;;;;;;;13.35;12.15;;;18.40;99.90;;;;;;5080293;28;20408;-59
2023/05/23 07:18:21;;;;;;;13.18;12.07;;;18.40;99.90;;;;;;5079818;28;20518;-58
2023/05/23 07:20:46;;;;;;;13.82;12.60;;;18.60;99.90;;;;;;5082391;28;20032;-58
2023/05/23 07:23:12;;;;;;;15.18;13.38;;;18.80;99.90;;;;;;5078991;28;20381;-59
2023/05/23 07:25:39;;;;;;;14.40;12.65;;;18.90;99.90;;;;;;5081604;28;20020;-59
2023/05/23 07:28:05;;;;;;;15.18;13.77;;;18.90;99.90;;;;;;5077979;28;20053;-59
2023/05/23 07:30:30;;;;;;;14.90;13.65;;;19.00;99.90;;;;;;5077931;28;20047;-59
2023/05/23 07:32:56;;;;;;;14.38;13.02;;;19.10;99.90;;;;;;5076234;28;20029;-59
2023/05/23 07:35:24;;;;;;;15.13;13.73;;;19.10;99.90;;;;;;5081363;28;20079;-59
2023/05/23 07:37:54;;;;;;;14.25;13.07;;;19.20;99.90;;;;;;5076823;28;20021;-59
2023/05/23 07:40:21;;;;;;;13.68;12.32;;;19.20;99.90;;;;;;5076527;28;20043;-59
2023/05/23 07:42:46;;;;;;;12.73;11.63;;;19.30;99.90;;;;;;5079909;28;20048;-59
2023/05/23 07:45:12;;;;;;;11.95;10.82;;;19.30;99.90;;;;;;5080498;28;20071;-59
2023/05/23 07:47:38;;;;;;;12.40;11.25;;;19.40;99.90;;;;;;5081068;28;20028;-58
2023/05/23 07:50:05;;;;;;;12.02;10.95;;;19.50;99.90;;;;;;5085367;28;20508;-58
2023/05/23 07:52:31;;;;;;;12.30;10.30;;;19.60;99.90;;;;;;5080003;28;20088;-59
2023/05/23 07:54:57;;;;;;;10.38;9.35;;;19.60;99.90;;;;;;5080724;28;20163;-59
2023/05/23 07:57:25;;;;;;;10.45;8.82;;;19.60;99.90;;;;;;5077241;28;20099;-59
2023/05/23 07:59:52;;;;;;;10.25;8.43;;;19.60;99.90;;;;;;5080320;28;20021;-58
2023/05/23 08:02:18;;;;;;;9.13;8.30;;;19.50;99.90;;;;;;5078494;28;20834;-59
2023/05/23 08:04:45;;;;;;;16.05;8.48;;;19.40;99.90;;;;;;5081988;28;20437;-58
2023/05/23 08:07:11;;;;;;;8.90;8.13;;;19.30;99.90;;;;;;5080173;28;20020;-59
2023/05/23 08:09:39;;;;;;;11.30;9.07;;;19.20;99.90;;;;;;5080582;28;20122;-59
2023/05/23 08:12:05;;;;;;;8.75;7.68;;;19.10;99.90;;;;;;5082829;28;20024;-58
2023/05/23 08:14:31;;;;;;;8.68;7.97;;;19.10;99.90;;;;;;5080659;28;20120;-58
2023/05/23 08:16:57;;;;;;;9.38;8.48;;;19.10;99.90;;;;;;5078537;28;20119;-59
2023/05/23 08:19:22;;;;;;;8.35;7.65;;;19.00;99.90;;;;;;5073034;28;20502;-58
2023/05/23 08:21:48;;;;;;;7.95;7.25;;;19.10;99.90;;;;;;5076864;28;20028;-58
2023/05/23 08:24:14;;;;;;;9.15;7.82;;;19.20;99.90;;;;;;5078935;28;20070;-59
2023/05/23 08:26:40;;;;;;;8.23;7.43;;;19.20;99.90;;;;;;5074722;28;20032;-59
2023/05/23 08:29:08;;;;;;;10.95;7.47;;;19.20;99.90;;;;;;5079256;28;20025;-59
2023/05/23 08:31:34;;;;;;;6.43;5.82;;;19.00;99.90;;;;;;5076893;28;20023;-58
2023/05/23 08:33:59;;;;;;;8.05;7.13;;;19.00;99.90;;;;;;5078205;28;20024;-58
2023/05/23 08:36:25;;;;;;;8.63;7.55;;;18.90;99.90;;;;;;5077892;28;20023;-58
2023/05/23 08:38:51;;;;;;;8.60;5.95;;;18.80;99.90;;;;;;5076753;28;20023;-58
2023/05/23 08:41:24;;;;;;;7.85;7.07;;;18.80;99.90;;;;;;5078082;28;20376;-58
2023/05/23 08:43:50;;;;;;;6.95;6.35;;;18.70;99.90;;;;;;5078159;28;20040;-58
2023/05/23 08:46:15;;;;;;;7.00;6.40;;;18.70;99.90;;;;;;5067776;28;20016;-57
2023/05/23 08:48:42;;;;;;;8.80;6.30;;;18.80;99.90;;;;;;5078680;28;20133;-58
2023/05/23 08:51:14;;;;;;;8.38;7.32;;;18.80;99.90;;;;;;5077340;28;20029;-57
2023/05/23 08:53:43;;;;;;;11.38;6.93;;;18.90;99.90;;;;;;5065452;28;20032;-58
2023/05/23 08:56:10;;;;;;;6.45;5.95;;;19.00;99.90;;;;;;5072372;28;20036;-58
2023/05/23 08:58:37;;;;;;;5.60;5.20;;;19.10;99.90;;;;;;5078122;28;20477;-58
2023/05/23 09:01:03;;;;;;;9.90;5.80;;;19.30;99.90;;;;;;5076104;28;20839;-59
2023/05/23 09:03:29;;;;;;;6.05;5.45;;;19.40;99.90;;;;;;5076863;28;20024;-57
2023/05/23 09:05:55;;;;;;;10.00;5.57;;;19.50;99.90;;;;;;5074395;28;20056;-58
2023/05/23 09:08:23;;;;;;;5.85;5.35;;;19.50;99.90;;;;;;5077947;28;20050;-58
2023/05/23 09:10:51;;;;;;;6.80;4.90;;;19.40;99.90;;;;;;5074529;28;20039;-58
2023/05/23 09:13:19;;;;;;;5.40;4.80;;;19.40;99.90;;;;;;5077345;28;20027;-59
2023/05/23 09:16:04;;;;;;;5.35;4.95;;;19.50;99.90;;;;;;5077211;28;20025;-59
2023/05/23 09:18:41;;;;;;;9.70;4.95;;;19.70;99.90;;;;;;5075940;28;20024;-58
2023/05/23 09:21:11;;;;;;;5.85;4.82;;;19.70;99.90;;;;;;5075231;28;20029;-59
2023/05/23 09:23:39;;;;;;;6.95;4.85;;;19.80;99.90;;;;;;5076004;28;20090;-58
2023/05/23 09:26:09;;;;;;;5.32;4.88;;;19.90;99.90;;;;;;5077299;28;20045;-59
2023/05/23 09:28:37;;;;;;;5.07;4.68;;;19.90;99.90;;;;;;5076125;28;20155;-59
2023/05/23 09:31:05;;;;;;;5.60;5.10;;;19.90;99.90;;;;;;5076376;28;20024;-59
2023/05/23 09:33:47;;;;;;;5.78;5.28;;;19.80;99.50;;;;;;5075794;28;20025;-59
2023/05/23 09:36:12;;;;;;;;;;;19.70;99.40;;;;;;5075769;28;20027;-58
2023/05/23 09:38:39;;;;;;;6.15;4.90;;;19.50;99.80;;;;;;5076189;28;19923;-58
2023/05/23 09:41:05;;;;;;;5.50;5.00;;;19.40;99.90;;;;;;5077134;28;20029;-59
2023/05/23 09:43:31;;;;;;;5.68;4.75;;;19.30;99.90;;;;;;5078630;28;20837;-59
2023/05/23 09:46:05;;;;;;;10.10;3.45;;;19.40;99.90;;;;;;5076089;28;20076;-58
2023/05/23 09:48:32;;;;;;;4.28;3.33;;;19.50;98.70;;;;;;5074911;28;20421;-59
2023/05/23 09:50:58;;;;;;;3.53;3.22;;;19.60;98.20;;;;;;5075955;28;20090;-58
2023/05/23 09:53:23;;;;;;;4.40;3.50;;;19.70;98.30;;;;;;5077815;28;20025;-59
2023/05/23 09:55:54;;;;;;;4.15;3.22;;;19.90;97.90;;;;;;5077325;28;20165;-59
2023/05/23 09:58:22;;;;;;;3.22;2.95;;;20.20;98.20;;;;;;5075166;28;20365;-58
2023/05/23 10:00:51;;;;;;;3.33;3.03;;;20.50;96.40;;;;;;5075808;28;20521;-58
2023/05/23 10:03:22;;;;;;;8.40;3.00;;;20.60;95.30;;;;;;5073593;28;20027;-58
2023/05/23 10:05:50;;;;;;;;;;;20.60;94.90;;;;;;5077235;28;20031;-60
2023/05/23 10:08:18;;;;;;;2.88;2.67;;;20.50;96.10;;;;;;5073258;28;19916;-58
2023/05/23 10:10:56;;;;;;;6.22;2.70;;;20.40;94.50;;;;;;5075246;28;20039;-60
2023/05/23 10:13:25;;;;;;;3.03;2.80;;;20.30;94.90;;;;;;5076219;28;20052;-58
2023/05/23 10:15:58;;;;;;;2.47;2.28;;;20.10;94.80;;;;;;5074242;28;20140;-58
2023/05/23 10:18:28;;;;;;;2.50;2.25;;;20.00;96.20;;;;;;5078711;28;20519;-60
2023/05/23 10:21:00;;;;;;;3.05;2.30;;;20.10;97.20;;;;;;5075025;28;20117;-58
2023/05/23 10:23:27;;;;;;;2.72;2.40;;;20.30;95.30;;;;;;5076207;28;20033;-59
2023/05/23 10:25:54;;;;;;;1.90;1.80;;;20.50;95.20;;;;;;5075338;28;20110;-58
2023/05/23 10:28:20;;;;;;;2.58;2.25;;;20.80;96.50;;;;;;5078331;28;20040;-59
2023/05/23 10:30:46;;;;;;;2.22;1.95;;;21.10;93.90;;;;;;5075157;28;20391;-59
2023/05/23 10:33:15;;;;;;;1.67;1.58;;;21.20;94.30;;;;;;5075677;28;20032;-59
2023/05/23 10:35:58;;;;;;;14.15;2.58;;;21.60;93.50;;;;;;5074373;28;20025;-58
2023/05/23 10:38:40;;;;;;;1.83;1.63;;;21.90;92.50;;;;;;5073205;28;20028;-59
2023/05/23 10:41:11;;;;;;;4.88;1.85;;;21.90;91.00;;;;;;5072853;28;20536;-58
2023/05/23 10:43:47;;;;;;;3.72;1.88;;;22.00;89.50;;;;;;5073996;28;20055;-60
2023/05/23 10:46:14;;;;;;;1.75;1.63;;;21.90;88.90;;;;;;5074305;28;20500;-59
2023/05/23 10:48:41;;;;;;;1.63;1.50;;;21.80;90.00;;;;;;5075712;28;20052;-58
2023/05/23 10:51:13;;;;;;;1.75;1.65;;;21.60;90.60;;;;;;5078816;28;20547;-60
2023/05/23 10:53:44;;;;;;;2.08;1.75;;;21.30;90.40;;;;;;5083032;28;20069;-60
2023/05/23 10:56:17;;;;;;;;;;;21.20;90.50;;;;;;5077872;28;20035;-57
2023/05/23 10:58:43;;;;;;;1.67;1.58;;;21.10;90.90;;;;;;5079270;28;20402;-58
2023/05/23 11:01:14;;;;;;;2.10;1.80;;;21.00;90.40;;;;;;5079160;28;20508;-59
2023/05/23 11:03:45;;;;;;;;;;;21.00;91.00;;;;;;5078541;28;20064;-59
2023/05/23 11:06:43;;;;;;;2.22;1.83;;;20.90;90.20;;;;;;5079995;28;19908;-59
2023/05/23 11:09:18;;;;;;;2.00;1.80;;;21.00;90.80;;;;;;5079074;28;20032;-60
2023/05/23 11:11:52;;;;;;;1.60;1.50;;;21.00;91.00;;;;;;5081510;28;20058;-59
2023/05/23 11:14:19;;;;;;;2.90;1.80;;;20.90;91.70;;;;;;5078979;28;20481;-60
2023/05/23 11:16:48;;;;;;;4.20;1.90;;;20.80;91.40;;;;;;5078399;28;20025;-59
2023/05/23 11:19:17;;;;;;;2.85;1.85;;;20.80;91.50;;;;;;5078740;28;20021;-59
2023/05/23 11:21:44;;;;;;;8.48;2.13;;;20.60;90.70;;;;;;5079428;28;20095;-59
2023/05/23 11:24:10;;;;;;;1.50;1.40;;;20.50;91.40;;;;;;5078061;28;20071;-58
2023/05/23 11:26:35;;;;;;;1.50;1.30;;;20.40;91.60;;;;;;5073912;28;20070;-60
2023/05/23 11:29:03;;;;;;;4.97;1.90;;;20.30;92.30;;;;;;5078330;28;20173;-59
2023/05/23 11:31:29;;;;;;;1.70;1.60;;;20.20;92.20;;;;;;5078464;28;20053;-58
2023/05/23 11:33:55;;;;;;;3.05;1.80;;;20.00;92.50;;;;;;5075183;28;20077;-59
2023/05/23 11:36:21;;;;;;;2.45;1.80;;;20.00;92.00;;;;;;5080441;28;20107;-59
2023/05/23 11:38:51;;;;;;;1.70;1.50;;;19.90;93.00;;;;;;5081115;28;20029;-59
2023/05/23 11:41:17;;;;;;;2.50;1.60;;;20.10;92.10;;;;;;5058819;28;20023;-60
2023/05/23 11:43:50;;;;;;;2.60;1.70;;;20.20;92.00;;;;;;5080101;28;20063;-59
2023/05/23 11:46:16;;;;;;;1.65;1.55;;;20.30;91.80;;;;;;5078132;28;20054;-59
2023/05/23 11:48:46;;;;;;;1.50;1.40;;;20.40;92.30;;;;;;5076381;28;20043;-60
2023/05/23 11:51:12;;;;;;;2.75;1.67;;;20.50;91.60;;;;;;5060336;28;20084;-58
2023/05/23 11:53:38;;;;;;;2.75;1.80;;;20.50;92.10;;;;;;5077740;28;20101;-59
2023/05/23 11:56:03;;;;;;;2.10;1.80;;;20.50;91.00;;;;;;5076951;28;20651;-59
2023/05/23 11:58:35;;;;;;;1.67;1.55;;;20.60;91.00;;;;;;5076904;28;20028;-59
2023/05/23 12:01:08;;;;;;;2.33;1.75;;;20.80;91.00;;;;;;5074242;28;20728;-59
2023/05/23 12:03:47;;;;;;;4.13;2.53;;;21.10;92.10;;;;;;5078073;28;20472;-60
2023/05/23 12:06:21;;;;;;;1.95;1.85;;;21.50;92.50;;;;;;5077263;28;20443;-58
2023/05/23 12:08:46;;;;;;;2.28;1.75;;;21.80;89.90;;;;;;5080562;28;20036;-58
2023/05/23 12:11:12;;;;;;;3.85;1.85;;;21.90;90.00;;;;;;5079546;28;20617;-59
2023/05/23 12:13:40;;;;;;;1.65;1.55;;;21.90;88.40;;;;;;5076828;28;20024;-59
2023/05/23 12:16:06;;;;;;;6.10;2.90;;;22.00;87.80;;;;;;5078676;28;20093;-59
2023/05/23 12:18:32;;;;;;;3.17;1.92;;;22.10;87.30;;;;;;5076802;28;20676;-59
2023/05/23 12:21:06;;;;;;;2.72;1.95;;;22.10;86.70;;;;;;5076762;28;20474;-60
2023/05/23 12:23:34;;;;;;;1.90;1.80;;;22.00;87.00;;;;;;5077792;28;20090;-58
2023/05/23 12:26:03;;;;;;;2.65;2.20;;;21.90;85.60;;;;;;5078994;28;20098;-60
2023/05/23 12:28:41;;;;;;;2.28;1.85;;;21.70;88.80;;;;;;5079585;28;20031;-59
2023/05/23 12:31:27;;;;;;;4.70;2.30;;;21.40;89.20;;;;;;5065297;28;20078;-60
2023/05/23 12:33:53;;;;;;;2.33;2.13;;;21.10;91.00;;;;;;5074989;28;20016;-59
2023/05/23 12:36:30;;;;;;;2.35;1.90;;;20.80;90.60;;;;;;5078944;28;20028;-59